Terminal Aerodrome Forecast
Issued by NWS Sioux Falls, SD

Home | Current Version | Previous Version | Graphics & Text | Print | Product List | Glossary On
Versions: 1 2 3 4 5 6 7 8 9 10 11 12 13 14 15
000
FTUS43 KFSD 262345
TAFFSD
TAF
KFSD 262345Z 2700/2724 34015G23KT P6SM SKC
     FM270100 33013KT P6SM SKC
     FM270300 29005KT P6SM SKC
     FM270900 24005KT P6SM SCT100
     FM271400 31011KT P6SM FEW250
     FM271600 32017G27KT P6SM SKC=

USA.gov is the U.S. government's official web portal to all federal, state and local government web resources and services.